メインページ
METAR-TAF:

METAR-TAF

空港 :

ハバナ, キューバ

ホセ・マルティ国際空港

緯度: 22-59N, 経度: 082-24W, 海抜: 59m

現時点の気象観測

当レポートは25分前の22:55(UTC)に作成
北東の風 13kt、から東/北東の間で変化する
気温 30°C
湿度 66%
気圧 1017 hPa
視程: 8000m
高度4000ftの雲は散在している

METAR: MUHA 272255Z 05013KT 010V070 8000 SCT040 30/23 Q1017

時間: 19:20 (23:20 UTC)

予報

当レポートは6時間20分前の17:00(UTC)に作成
予報は27日の 18時(UTC)から 28日の 18時(UTC)まで有効
南/南東の風 5kt
視程: 9000m
高度3000ftの雲は散在している
28日の 01時(UTC)から 28日の 03時(UTC)まで徐々に
変向風 3kt
高度3000ftの雲はほとんどない
28日の 13時(UTC)から 28日の 15時(UTC)まで徐々に
の風 5kt

TAF: MUHA 271700Z 2718/2818 16005KT 9000 SCT030 BECMG 2801/2803 VRB03KT FEW030 BECMG 2813/2815 09005KT

4,000以上の空港の気象観測と天気予報(METAR報とTAF報)

利用可能な観測所は地図上に黄色い丸と赤い丸で示す。

丸の上にカーソルを重ねると観測所名を参照できる。

次にクリックすると気象観測と天気予報を参照できる。

マップの切り替え:黒色「×」印の緑ボタンをクリックして拡大、「-」印の緑ボタンをクリックして縮小、緑色の三角印をクリックして隣りの地図に切り替え


METAR-TAF: